Ridgeway, Connecticut
Current Conditions -  °F | °C
As of 5:56 AM on Friday 28 Nov 2014 (Local Time) from KHPN Reporting Station
Few Clouds Few Clouds  
Wind Chill: 18°   Ceiling: Unl
Heat Index: 29°   Visibility: 10mi
Dew Point: 22°   Wind: 14mph
Humidity: 75%   Direction: 300°WNW
Pressure: 30.07"   Gusts: NA
Location:  41.0876°N, 73.5444°W
Report Text: KHPN 281056Z 30012KT 10SM FEW060 M02/M06 A3007 RMK AO2 SLP190 T10171056
Loading
Personal Weather Stations






























Interactive Weather Map New forecast layout! Learn more

10-Day Weather Forecast

Advertisements
Track Severe Weather on mobile